sensor_id;sensor_type;location;lat;lon;timestamp;temperature;humidity
19110;DHT22;9687;50.836;12.060;2023-09-12T00:00:00;24.10;62.10
19110;DHT22;9687;50.836;12.060;2023-09-12T00:02:28;24.10;62.20
19110;DHT22;9687;50.836;12.060;2023-09-12T00:05:04;24.10;62.30
19110;DHT22;9687;50.836;12.060;2023-09-12T00:07:39;24.10;62.30
19110;DHT22;9687;50.836;12.060;2023-09-12T00:10:20;24.00;62.30
19110;DHT22;9687;50.836;12.060;2023-09-12T00:12:49;24.00;62.40
19110;DHT22;9687;50.836;12.060;2023-09-12T00:15:20;24.00;62.50
19110;DHT22;9687;50.836;12.060;2023-09-12T00:18:06;24.00;62.60
19110;DHT22;9687;50.836;12.060;2023-09-12T00:20:33;24.00;62.60
19110;DHT22;9687;50.836;12.060;2023-09-12T00:23:04;24.00;62.70
19110;DHT22;9687;50.836;12.060;2023-09-12T00:25:38;23.90;62.60
19110;DHT22;9687;50.836;12.060;2023-09-12T00:28:12;24.00;62.70
19110;DHT22;9687;50.836;12.060;2023-09-12T00:30:43;23.90;62.60
19110;DHT22;9687;50.836;12.060;2023-09-12T00:33:15;23.90;62.70
19110;DHT22;9687;50.836;12.060;2023-09-12T00:35:47;23.90;62.70
19110;DHT22;9687;50.836;12.060;2023-09-12T00:38:19;23.80;62.70
19110;DHT22;9687;50.836;12.060;2023-09-12T00:40:50;23.80;62.80
19110;DHT22;9687;50.836;12.060;2023-09-12T00:43:25;23.80;62.80
19110;DHT22;9687;50.836;12.060;2023-09-12T00:45:56;23.80;62.90
19110;DHT22;9687;50.836;12.060;2023-09-12T00:48:27;23.80;62.90
19110;DHT22;9687;50.836;12.060;2023-09-12T00:50:55;23.70;62.90
19110;DHT22;9687;50.836;12.060;2023-09-12T00:53:23;23.70;63.00
19110;DHT22;9687;50.836;12.060;2023-09-12T00:55:55;23.60;63.10
19110;DHT22;9687;50.836;12.060;2023-09-12T00:58:30;23.60;63.20
19110;DHT22;9687;50.836;12.060;2023-09-12T01:01:02;23.60;63.40
19110;DHT22;9687;50.836;12.060;2023-09-12T01:03:36;23.50;63.40
19110;DHT22;9687;50.836;12.060;2023-09-12T01:06:12;23.40;63.60
19110;DHT22;9687;50.836;12.060;2023-09-12T01:09:04;23.30;63.70
19110;DHT22;9687;50.836;12.060;2023-09-12T01:11:39;23.30;64.10
19110;DHT22;9687;50.836;12.060;2023-09-12T01:14:17;23.30;64.20
19110;DHT22;9687;50.836;12.060;2023-09-12T01:16:48;23.20;64.10
19110;DHT22;9687;50.836;12.060;2023-09-12T01:19:20;23.20;64.20
19110;DHT22;9687;50.836;12.060;2023-09-12T01:22:01;23.20;64.20
19110;DHT22;9687;50.836;12.060;2023-09-12T01:24:49;23.20;64.20
19110;DHT22;9687;50.836;12.060;2023-09-12T01:27:32;23.10;64.20
19110;DHT22;9687;50.836;12.060;2023-09-12T01:30:05;23.10;64.20
19110;DHT22;9687;50.836;12.060;2023-09-12T01:32:37;23.20;64.30
19110;DHT22;9687;50.836;12.060;2023-09-12T01:35:14;23.10;64.30
19110;DHT22;9687;50.836;12.060;2023-09-12T01:37:46;23.10;64.40
19110;DHT22;9687;50.836;12.060;2023-09-12T01:40:24;23.10;64.40
19110;DHT22;9687;50.836;12.060;2023-09-12T01:43:11;23.10;64.50
19110;DHT22;9687;50.836;12.060;2023-09-12T01:45:44;23.00;64.60
19110;DHT22;9687;50.836;12.060;2023-09-12T01:48:11;23.00;64.70
19110;DHT22;9687;50.836;12.060;2023-09-12T01:50:43;22.90;64.80
19110;DHT22;9687;50.836;12.060;2023-09-12T01:53:16;22.90;65.00
19110;DHT22;9687;50.836;12.060;2023-09-12T01:55:51;22.80;64.90
19110;DHT22;9687;50.836;12.060;2023-09-12T01:58:30;22.80;65.10
19110;DHT22;9687;50.836;12.060;2023-09-12T02:01:03;22.70;65.10
19110;DHT22;9687;50.836;12.060;2023-09-12T02:03:33;22.70;65.30
19110;DHT22;9687;50.836;12.060;2023-09-12T02:06:05;22.70;65.40
19110;DHT22;9687;50.836;12.060;2023-09-12T02:08:40;22.60;65.40
19110;DHT22;9687;50.836;12.060;2023-09-12T02:11:07;22.60;65.50
19110;DHT22;9687;50.836;12.060;2023-09-12T02:13:36;22.60;65.60
19110;DHT22;9687;50.836;12.060;2023-09-12T02:16:21;22.50;65.50
19110;DHT22;9687;50.836;12.060;2023-09-12T02:18:49;22.60;65.60
19110;DHT22;9687;50.836;12.060;2023-09-12T02:21:24;22.60;65.60
19110;DHT22;9687;50.836;12.060;2023-09-12T02:23:56;22.50;65.50
19110;DHT22;9687;50.836;12.060;2023-09-12T02:26:36;22.50;65.70
19110;DHT22;9687;50.836;12.060;2023-09-12T02:29:10;22.50;65.70
19110;DHT22;9687;50.836;12.060;2023-09-12T02:31:43;22.50;65.70
19110;DHT22;9687;50.836;12.060;2023-09-12T02:34:17;22.40;65.70
19110;DHT22;9687;50.836;12.060;2023-09-12T02:36:49;22.40;65.70
19110;DHT22;9687;50.836;12.060;2023-09-12T02:39:22;22.40;65.70
19110;DHT22;9687;50.836;12.060;2023-09-12T02:41:58;22.40;65.80
19110;DHT22;9687;50.836;12.060;2023-09-12T02:44:37;22.40;65.80
19110;DHT22;9687;50.836;12.060;2023-09-12T02:47:11;22.40;65.80
19110;DHT22;9687;50.836;12.060;2023-09-12T02:49:42;22.40;65.90
19110;DHT22;9687;50.836;12.060;2023-09-12T02:52:26;22.40;65.90
19110;DHT22;9687;50.836;12.060;2023-09-12T02:54:58;22.40;65.90
19110;DHT22;9687;50.836;12.060;2023-09-12T02:57:26;22.40;66.00
19110;DHT22;9687;50.836;12.060;2023-09-12T02:59:56;22.40;66.10
19110;DHT22;9687;50.836;12.060;2023-09-12T03:02:32;22.40;66.10
19110;DHT22;9687;50.836;12.060;2023-09-12T03:05:07;22.30;66.00
19110;DHT22;9687;50.836;12.060;2023-09-12T03:07:35;22.30;66.20
19110;DHT22;9687;50.836;12.060;2023-09-12T03:10:08;22.30;66.40
19110;DHT22;9687;50.836;12.060;2023-09-12T03:12:39;22.20;66.40
19110;DHT22;9687;50.836;12.060;2023-09-12T03:15:12;22.10;66.60
19110;DHT22;9687;50.836;12.060;2023-09-12T03:17:44;21.90;66.70
19110;DHT22;9687;50.836;12.060;2023-09-12T03:20:15;21.80;66.90
19110;DHT22;9687;50.836;12.060;2023-09-12T03:22:47;21.80;67.10
19110;DHT22;9687;50.836;12.060;2023-09-12T03:25:36;21.80;67.30
19110;DHT22;9687;50.836;12.060;2023-09-12T03:28:04;21.70;67.40
19110;DHT22;9687;50.836;12.060;2023-09-12T03:30:39;21.70;67.40
19110;DHT22;9687;50.836;12.060;2023-09-12T03:33:11;21.70;67.50
19110;DHT22;9687;50.836;12.060;2023-09-12T03:35:42;21.60;67.40
19110;DHT22;9687;50.836;12.060;2023-09-12T03:38:32;21.60;67.60
19110;DHT22;9687;50.836;12.060;2023-09-12T03:41:00;21.60;67.80
19110;DHT22;9687;50.836;12.060;2023-09-12T03:43:27;21.60;67.80
19110;DHT22;9687;50.836;12.060;2023-09-12T03:46:01;21.50;67.80
19110;DHT22;9687;50.836;12.060;2023-09-12T03:48:47;21.60;67.90
19110;DHT22;9687;50.836;12.060;2023-09-12T03:51:16;21.60;67.80
19110;DHT22;9687;50.836;12.060;2023-09-12T03:53:51;21.60;67.80
19110;DHT22;9687;50.836;12.060;2023-09-12T03:56:28;21.60;67.80
19110;DHT22;9687;50.836;12.060;2023-09-12T03:58:56;21.60;67.80
19110;DHT22;9687;50.836;12.060;2023-09-12T04:01:27;21.60;67.80
19110;DHT22;9687;50.836;12.060;2023-09-12T04:04:01;21.60;67.80
19110;DHT22;9687;50.836;12.060;2023-09-12T04:06:37;21.60;67.80
19110;DHT22;9687;50.836;12.060;2023-09-12T04:09:14;21.70;67.90
19110;DHT22;9687;50.836;12.060;2023-09-12T04:11:59;21.60;67.80
19110;DHT22;9687;50.836;12.060;2023-09-12T04:14:27;21.60;67.70
19110;DHT22;9687;50.836;12.060;2023-09-12T04:17:05;21.60;67.80
19110;DHT22;9687;50.836;12.060;2023-09-12T04:19:50;21.60;67.80
19110;DHT22;9687;50.836;12.060;2023-09-12T04:22:18;21.50;68.00
19110;DHT22;9687;50.836;12.060;2023-09-12T04:24:58;21.50;68.20
19110;DHT22;9687;50.836;12.060;2023-09-12T04:27:44;21.50;68.30
19110;DHT22;9687;50.836;12.060;2023-09-12T04:30:11;21.40;68.30
19110;DHT22;9687;50.836;12.060;2023-09-12T04:32:46;21.40;68.40
19110;DHT22;9687;50.836;12.060;2023-09-12T04:35:38;21.30;68.50
19110;DHT22;9687;50.836;12.060;2023-09-12T04:38:06;21.30;68.60
19110;DHT22;9687;50.836;12.060;2023-09-12T04:40:33;21.30;68.80
19110;DHT22;9687;50.836;12.060;2023-09-12T04:43:02;21.10;68.80
19110;DHT22;9687;50.836;12.060;2023-09-12T04:45:40;21.10;69.00
19110;DHT22;9687;50.836;12.060;2023-09-12T04:48:09;21.10;69.20
19110;DHT22;9687;50.836;12.060;2023-09-12T04:50:55;21.00;69.30
19110;DHT22;9687;50.836;12.060;2023-09-12T04:53:24;21.00;69.40
19110;DHT22;9687;50.836;12.060;2023-09-12T04:55:53;21.00;69.40
19110;DHT22;9687;50.836;12.060;2023-09-12T04:58:27;21.00;69.40
19110;DHT22;9687;50.836;12.060;2023-09-12T05:00:54;21.10;69.50
19110;DHT22;9687;50.836;12.060;2023-09-12T05:03:28;21.00;70.20
19110;DHT22;9687;50.836;12.060;2023-09-12T05:05:55;21.00;69.50
19110;DHT22;9687;50.836;12.060;2023-09-12T05:08:25;21.00;69.50
19110;DHT22;9687;50.836;12.060;2023-09-12T05:10:55;21.00;69.80
19110;DHT22;9687;50.836;12.060;2023-09-12T05:13:26;20.90;69.70
19110;DHT22;9687;50.836;12.060;2023-09-12T05:15:56;20.90;70.00
19110;DHT22;9687;50.836;12.060;2023-09-12T05:18:29;20.90;70.40
19110;DHT22;9687;50.836;12.060;2023-09-12T05:21:12;20.80;71.00
19110;DHT22;9687;50.836;12.060;2023-09-12T05:23:39;20.80;71.50
19110;DHT22;9687;50.836;12.060;2023-09-12T05:26:05;20.80;71.90
19110;DHT22;9687;50.836;12.060;2023-09-12T05:28:35;20.70;72.20
19110;DHT22;9687;50.836;12.060;2023-09-12T05:31:08;20.70;72.60
19110;DHT22;9687;50.836;12.060;2023-09-12T05:33:41;20.70;72.60
19110;DHT22;9687;50.836;12.060;2023-09-12T05:36:12;20.70;73.10
19110;DHT22;9687;50.836;12.060;2023-09-12T05:38:41;20.60;73.40
19110;DHT22;9687;50.836;12.060;2023-09-12T05:41:12;20.60;73.40
19110;DHT22;9687;50.836;12.060;2023-09-12T05:43:41;20.60;73.70
19110;DHT22;9687;50.836;12.060;2023-09-12T05:46:09;20.60;74.10
19110;DHT22;9687;50.836;12.060;2023-09-12T05:48:46;20.50;74.10
19110;DHT22;9687;50.836;12.060;2023-09-12T05:51:23;20.50;74.30
19110;DHT22;9687;50.836;12.060;2023-09-12T05:53:51;20.50;75.50
19110;DHT22;9687;50.836;12.060;2023-09-12T05:56:19;20.50;75.00
19110;DHT22;9687;50.836;12.060;2023-09-12T05:58:50;20.50;75.20
19110;DHT22;9687;50.836;12.060;2023-09-12T06:01:18;20.50;75.30
19110;DHT22;9687;50.836;12.060;2023-09-12T06:03:53;20.50;75.30
19110;DHT22;9687;50.836;12.060;2023-09-12T06:06:24;20.50;75.30
19110;DHT22;9687;50.836;12.060;2023-09-12T06:08:58;20.50;75.80
19110;DHT22;9687;50.836;12.060;2023-09-12T06:17:43;20.70;76.00
19110;DHT22;9687;50.836;12.060;2023-09-12T06:20:13;20.60;76.20
19110;DHT22;9687;50.836;12.060;2023-09-12T06:22:40;20.60;76.30
19110;DHT22;9687;50.836;12.060;2023-09-12T06:25:09;20.70;76.70
19110;DHT22;9687;50.836;12.060;2023-09-12T06:27:41;20.90;77.10
19110;DHT22;9687;50.836;12.060;2023-09-12T06:30:10;20.90;77.10
19110;DHT22;9687;50.836;12.060;2023-09-12T06:32:39;21.10;77.30
19110;DHT22;9687;50.836;12.060;2023-09-12T06:35:09;21.20;77.20
19110;DHT22;9687;50.836;12.060;2023-09-12T06:37:39;21.20;77.20
19110;DHT22;9687;50.836;12.060;2023-09-12T06:40:07;21.30;77.30
19110;DHT22;9687;50.836;12.060;2023-09-12T06:42:35;21.30;77.30
19110;DHT22;9687;50.836;12.060;2023-09-12T06:45:05;21.50;77.20
19110;DHT22;9687;50.836;12.060;2023-09-12T06:47:34;21.50;77.10
19110;DHT22;9687;50.836;12.060;2023-09-12T06:50:26;21.60;77.10
19110;DHT22;9687;50.836;12.060;2023-09-12T06:52:55;21.70;76.80
19110;DHT22;9687;50.836;12.060;2023-09-12T06:55:24;21.80;76.70
19110;DHT22;9687;50.836;12.060;2023-09-12T06:57:54;21.90;76.90
19110;DHT22;9687;50.836;12.060;2023-09-12T07:00:22;22.00;77.10
19110;DHT22;9687;50.836;12.060;2023-09-12T07:02:50;22.10;77.20
19110;DHT22;9687;50.836;12.060;2023-09-12T07:05:17;22.30;77.50
19110;DHT22;9687;50.836;12.060;2023-09-12T07:07:44;22.40;77.90
19110;DHT22;9687;50.836;12.060;2023-09-12T07:10:13;22.60;78.40
19110;DHT22;9687;50.836;12.060;2023-09-12T07:12:40;22.80;79.10
19110;DHT22;9687;50.836;12.060;2023-09-12T07:15:09;23.10;79.80
19110;DHT22;9687;50.836;12.060;2023-09-12T07:17:54;23.40;80.40
19110;DHT22;9687;50.836;12.060;2023-09-12T07:20:22;23.80;80.20
19110;DHT22;9687;50.836;12.060;2023-09-12T07:22:51;24.20;80.30
19110;DHT22;9687;50.836;12.060;2023-09-12T07:25:19;24.60;80.50
19110;DHT22;9687;50.836;12.060;2023-09-12T07:27:53;24.90;79.20
19110;DHT22;9687;50.836;12.060;2023-09-12T07:30:27;25.30;78.40
19110;DHT22;9687;50.836;12.060;2023-09-12T07:33:00;25.70;77.80
19110;DHT22;9687;50.836;12.060;2023-09-12T07:35:28;26.10;76.80
19110;DHT22;9687;50.836;12.060;2023-09-12T07:37:57;26.40;76.00
19110;DHT22;9687;50.836;12.060;2023-09-12T07:40:40;26.90;76.00
19110;DHT22;9687;50.836;12.060;2023-09-12T07:43:10;27.40;74.80
19110;DHT22;9687;50.836;12.060;2023-09-12T07:45:39;27.90;72.70
19110;DHT22;9687;50.836;12.060;2023-09-12T07:48:07;28.40;71.00
19110;DHT22;9687;50.836;12.060;2023-09-12T07:50:35;28.80;69.50
19110;DHT22;9687;50.836;12.060;2023-09-12T07:53:05;29.20;67.70
19110;DHT22;9687;50.836;12.060;2023-09-12T07:55:35;29.50;66.10
19110;DHT22;9687;50.836;12.060;2023-09-12T07:58:14;29.70;64.50
19110;DHT22;9687;50.836;12.060;2023-09-12T08:00:43;29.80;63.30
19110;DHT22;9687;50.836;12.060;2023-09-12T08:03:11;30.00;62.50
19110;DHT22;9687;50.836;12.060;2023-09-12T08:05:39;30.10;62.20
19110;DHT22;9687;50.836;12.060;2023-09-12T08:08:08;30.30;61.40
19110;DHT22;9687;50.836;12.060;2023-09-12T08:10:37;30.60;60.80
19110;DHT22;9687;50.836;12.060;2023-09-12T08:13:06;30.80;60.50
19110;DHT22;9687;50.836;12.060;2023-09-12T08:15:35;31.10;59.30
19110;DHT22;9687;50.836;12.060;2023-09-12T08:18:04;31.30;58.70
19110;DHT22;9687;50.836;12.060;2023-09-12T08:20:33;31.60;58.20
19110;DHT22;9687;50.836;12.060;2023-09-12T08:23:01;31.90;57.40
19110;DHT22;9687;50.836;12.060;2023-09-12T08:25:31;32.30;56.80
19110;DHT22;9687;50.836;12.060;2023-09-12T08:27:58;32.60;56.10
19110;DHT22;9687;50.836;12.060;2023-09-12T08:30:28;32.80;55.40
19110;DHT22;9687;50.836;12.060;2023-09-12T08:32:56;33.00;55.10
19110;DHT22;9687;50.836;12.060;2023-09-12T08:35:24;33.10;54.80
19110;DHT22;9687;50.836;12.060;2023-09-12T08:37:53;33.30;54.40
19110;DHT22;9687;50.836;12.060;2023-09-12T08:40:21;33.40;54.10
19110;DHT22;9687;50.836;12.060;2023-09-12T08:42:50;33.40;53.90
19110;DHT22;9687;50.836;12.060;2023-09-12T08:45:19;33.50;53.80
19110;DHT22;9687;50.836;12.060;2023-09-12T08:47:49;33.60;53.60
19110;DHT22;9687;50.836;12.060;2023-09-12T08:50:17;33.70;53.40
19110;DHT22;9687;50.836;12.060;2023-09-12T08:52:45;33.80;53.40
19110;DHT22;9687;50.836;12.060;2023-09-12T08:55:12;33.90;53.20
19110;DHT22;9687;50.836;12.060;2023-09-12T08:57:40;33.80;53.20
19110;DHT22;9687;50.836;12.060;2023-09-12T09:00:08;33.80;53.20
19110;DHT22;9687;50.836;12.060;2023-09-12T09:02:39;33.70;53.10
19110;DHT22;9687;50.836;12.060;2023-09-12T09:05:08;33.60;53.20
19110;DHT22;9687;50.836;12.060;2023-09-12T09:07:39;33.50;53.30
19110;DHT22;9687;50.836;12.060;2023-09-12T09:10:07;33.40;53.60
19110;DHT22;9687;50.836;12.060;2023-09-12T09:12:37;33.20;53.70
19110;DHT22;9687;50.836;12.060;2023-09-12T09:15:22;33.00;53.90
19110;DHT22;9687;50.836;12.060;2023-09-12T09:18:02;32.90;54.20
19110;DHT22;9687;50.836;12.060;2023-09-12T09:20:32;32.70;54.30
19110;DHT22;9687;50.836;12.060;2023-09-12T09:23:03;32.80;54.70
19110;DHT22;9687;50.836;12.060;2023-09-12T09:25:32;32.70;54.70
19110;DHT22;9687;50.836;12.060;2023-09-12T09:28:02;32.80;54.80
19110;DHT22;9687;50.836;12.060;2023-09-12T09:30:40;32.80;54.50
19110;DHT22;9687;50.836;12.060;2023-09-12T09:33:08;32.80;54.30
19110;DHT22;9687;50.836;12.060;2023-09-12T09:35:36;32.80;54.20
19110;DHT22;9687;50.836;12.060;2023-09-12T09:38:07;32.80;54.10
19110;DHT22;9687;50.836;12.060;2023-09-12T09:40:35;32.90;54.00
19110;DHT22;9687;50.836;12.060;2023-09-12T09:43:03;32.90;54.00
19110;DHT22;9687;50.836;12.060;2023-09-12T09:45:57;33.00;53.90
19110;DHT22;9687;50.836;12.060;2023-09-12T09:48:48;33.10;53.80
19110;DHT22;9687;50.836;12.060;2023-09-12T09:51:16;33.10;53.50
19110;DHT22;9687;50.836;12.060;2023-09-12T09:53:45;33.20;53.40
19110;DHT22;9687;50.836;12.060;2023-09-12T09:56:14;33.20;53.10
19110;DHT22;9687;50.836;12.060;2023-09-12T09:58:47;33.30;52.90
19110;DHT22;9687;50.836;12.060;2023-09-12T10:01:17;33.20;52.70
19110;DHT22;9687;50.836;12.060;2023-09-12T10:04:04;33.30;52.70
19110;DHT22;9687;50.836;12.060;2023-09-12T10:07:04;33.30;52.60
19110;DHT22;9687;50.836;12.060;2023-09-12T10:09:42;33.30;52.30
19110;DHT22;9687;50.836;12.060;2023-09-12T10:12:11;33.40;52.20
19110;DHT22;9687;50.836;12.060;2023-09-12T10:14:41;33.30;52.20
19110;DHT22;9687;50.836;12.060;2023-09-12T10:17:12;33.40;52.10
19110;DHT22;9687;50.836;12.060;2023-09-12T10:19:43;33.50;52.00
19110;DHT22;9687;50.836;12.060;2023-09-12T10:22:12;33.50;51.80
19110;DHT22;9687;50.836;12.060;2023-09-12T10:24:44;33.50;52.20
19110;DHT22;9687;50.836;12.060;2023-09-12T10:27:12;33.50;51.50
19110;DHT22;9687;50.836;12.060;2023-09-12T10:29:42;33.60;51.30
19110;DHT22;9687;50.836;12.060;2023-09-12T10:32:14;33.50;51.20
19110;DHT22;9687;50.836;12.060;2023-09-12T10:34:42;33.50;51.20
19110;DHT22;9687;50.836;12.060;2023-09-12T10:37:11;33.50;51.40
19110;DHT22;9687;50.836;12.060;2023-09-12T10:39:40;33.50;51.40
19110;DHT22;9687;50.836;12.060;2023-09-12T10:42:11;33.60;51.50
19110;DHT22;9687;50.836;12.060;2023-09-12T10:44:40;33.50;51.40
19110;DHT22;9687;50.836;12.060;2023-09-12T10:47:07;33.50;51.60
19110;DHT22;9687;50.836;12.060;2023-09-12T10:49:35;33.40;51.80
19110;DHT22;9687;50.836;12.060;2023-09-12T10:52:04;33.30;51.90
19110;DHT22;9687;50.836;12.060;2023-09-12T10:54:36;33.30;52.10
19110;DHT22;9687;50.836;12.060;2023-09-12T10:57:05;33.30;52.30
19110;DHT22;9687;50.836;12.060;2023-09-12T10:59:37;33.30;52.30
19110;DHT22;9687;50.836;12.060;2023-09-12T11:02:27;33.40;52.40
19110;DHT22;9687;50.836;12.060;2023-09-12T11:04:56;33.50;52.40
19110;DHT22;9687;50.836;12.060;2023-09-12T11:07:30;33.50;52.40
19110;DHT22;9687;50.836;12.060;2023-09-12T11:10:17;33.40;52.30
19110;DHT22;9687;50.836;12.060;2023-09-12T11:12:46;33.30;52.40
19110;DHT22;9687;50.836;12.060;2023-09-12T11:15:16;33.10;52.70
19110;DHT22;9687;50.836;12.060;2023-09-12T11:17:44;33.00;52.90
19110;DHT22;9687;50.836;12.060;2023-09-12T11:20:12;33.00;53.20
19110;DHT22;9687;50.836;12.060;2023-09-12T11:22:41;32.90;53.40
19110;DHT22;9687;50.836;12.060;2023-09-12T11:25:18;32.90;53.30
19110;DHT22;9687;50.836;12.060;2023-09-12T11:28:02;32.90;53.20
19110;DHT22;9687;50.836;12.060;2023-09-12T11:30:31;32.90;53.60
19110;DHT22;9687;50.836;12.060;2023-09-12T11:33:03;32.90;53.80
19110;DHT22;9687;50.836;12.060;2023-09-12T11:35:31;32.80;53.80
19110;DHT22;9687;50.836;12.060;2023-09-12T11:38:12;32.90;53.70
19110;DHT22;9687;50.836;12.060;2023-09-12T11:40:53;32.90;53.70
19110;DHT22;9687;50.836;12.060;2023-09-12T11:43:21;32.90;53.90
19110;DHT22;9687;50.836;12.060;2023-09-12T11:45:51;32.90;53.80
19110;DHT22;9687;50.836;12.060;2023-09-12T11:48:21;32.90;53.90
19110;DHT22;9687;50.836;12.060;2023-09-12T11:50:52;32.90;53.90
19110;DHT22;9687;50.836;12.060;2023-09-12T11:53:27;32.90;54.00
19110;DHT22;9687;50.836;12.060;2023-09-12T11:56:09;32.90;54.00
19110;DHT22;9687;50.836;12.060;2023-09-12T11:58:44;32.80;53.90
19110;DHT22;9687;50.836;12.060;2023-09-12T12:01:17;32.70;53.90
19110;DHT22;9687;50.836;12.060;2023-09-12T12:03:57;32.50;54.00
19110;DHT22;9687;50.836;12.060;2023-09-12T12:06:27;32.40;54.20
19110;DHT22;9687;50.836;12.060;2023-09-12T12:09:05;32.20;54.50
19110;DHT22;9687;50.836;12.060;2023-09-12T12:11:35;32.20;54.60
19110;DHT22;9687;50.836;12.060;2023-09-12T12:14:12;32.20;54.80
19110;DHT22;9687;50.836;12.060;2023-09-12T12:16:43;32.20;54.90
19110;DHT22;9687;50.836;12.060;2023-09-12T12:19:12;32.20;54.90
19110;DHT22;9687;50.836;12.060;2023-09-12T12:21:58;32.10;55.00
19110;DHT22;9687;50.836;12.060;2023-09-12T12:24:35;32.10;55.00
19110;DHT22;9687;50.836;12.060;2023-09-12T12:27:03;32.10;55.00
19110;DHT22;9687;50.836;12.060;2023-09-12T12:29:32;31.90;55.00
19110;DHT22;9687;50.836;12.060;2023-09-12T12:32:03;31.90;55.30
19110;DHT22;9687;50.836;12.060;2023-09-12T12:34:49;31.80;55.50
19110;DHT22;9687;50.836;12.060;2023-09-12T12:37:21;31.80;55.60
19110;DHT22;9687;50.836;12.060;2023-09-12T12:39:54;31.80;55.70
19110;DHT22;9687;50.836;12.060;2023-09-12T12:42:32;31.70;55.70
19110;DHT22;9687;50.836;12.060;2023-09-12T12:45:11;31.70;55.70
19110;DHT22;9687;50.836;12.060;2023-09-12T12:47:41;31.70;55.80
19110;DHT22;9687;50.836;12.060;2023-09-12T12:50:10;31.70;55.80
19110;DHT22;9687;50.836;12.060;2023-09-12T12:52:38;31.70;56.00
19110;DHT22;9687;50.836;12.060;2023-09-12T12:58:34;31.60;56.30
19110;DHT22;9687;50.836;12.060;2023-09-12T13:01:08;31.50;56.50
19110;DHT22;9687;50.836;12.060;2023-09-12T13:03:38;31.50;56.60
19110;DHT22;9687;50.836;12.060;2023-09-12T13:06:26;31.50;56.60
19110;DHT22;9687;50.836;12.060;2023-09-12T13:08:55;31.40;56.60
19110;DHT22;9687;50.836;12.060;2023-09-12T13:11:25;31.30;56.80
19110;DHT22;9687;50.836;12.060;2023-09-12T13:13:54;31.30;57.00
19110;DHT22;9687;50.836;12.060;2023-09-12T13:16:22;31.30;57.00
19110;DHT22;9687;50.836;12.060;2023-09-12T13:18:51;31.20;57.10
19110;DHT22;9687;50.836;12.060;2023-09-12T13:21:19;31.20;57.30
19110;DHT22;9687;50.836;12.060;2023-09-12T13:23:46;31.10;57.20
19110;DHT22;9687;50.836;12.060;2023-09-12T13:26:14;31.10;57.30
19110;DHT22;9687;50.836;12.060;2023-09-12T13:28:41;31.00;57.30
19110;DHT22;9687;50.836;12.060;2023-09-12T13:31:08;31.00;57.40
19110;DHT22;9687;50.836;12.060;2023-09-12T13:33:36;31.00;57.50
19110;DHT22;9687;50.836;12.060;2023-09-12T13:36:05;31.00;57.60
19110;DHT22;9687;50.836;12.060;2023-09-12T13:38:33;31.00;57.80
19110;DHT22;9687;50.836;12.060;2023-09-12T13:41:02;30.90;57.80
19110;DHT22;9687;50.836;12.060;2023-09-12T13:43:30;30.90;57.90
19110;DHT22;9687;50.836;12.060;2023-09-12T13:45:59;30.90;58.10
19110;DHT22;9687;50.836;12.060;2023-09-12T13:48:27;30.90;58.10
19110;DHT22;9687;50.836;12.060;2023-09-12T13:50:55;30.90;58.20
19110;DHT22;9687;50.836;12.060;2023-09-12T13:53:24;30.90;58.20
19110;DHT22;9687;50.836;12.060;2023-09-12T13:56:16;30.90;58.30
19110;DHT22;9687;50.836;12.060;2023-09-12T13:58:47;30.90;58.40
19110;DHT22;9687;50.836;12.060;2023-09-12T14:01:17;30.90;58.40
19110;DHT22;9687;50.836;12.060;2023-09-12T14:03:45;30.90;58.30
19110;DHT22;9687;50.836;12.060;2023-09-12T14:06:24;30.90;58.30
19110;DHT22;9687;50.836;12.060;2023-09-12T14:09:11;30.90;58.80
19110;DHT22;9687;50.836;12.060;2023-09-12T14:11:40;30.80;58.20
19110;DHT22;9687;50.836;12.060;2023-09-12T14:14:09;30.80;58.20
19110;DHT22;9687;50.836;12.060;2023-09-12T14:16:40;30.80;58.20
19110;DHT22;9687;50.836;12.060;2023-09-12T14:19:15;30.80;58.20
19110;DHT22;9687;50.836;12.060;2023-09-12T14:21:50;30.80;58.30
19110;DHT22;9687;50.836;12.060;2023-09-12T14:24:19;30.80;58.40
19110;DHT22;9687;50.836;12.060;2023-09-12T14:26:48;30.80;58.40
19110;DHT22;9687;50.836;12.060;2023-09-12T14:29:16;30.80;58.40
19110;DHT22;9687;50.836;12.060;2023-09-12T14:31:49;30.80;58.40
19110;DHT22;9687;50.836;12.060;2023-09-12T14:34:30;30.80;58.40
19110;DHT22;9687;50.836;12.060;2023-09-12T14:36:59;30.80;58.30
19110;DHT22;9687;50.836;12.060;2023-09-12T14:39:29;30.80;58.30
19110;DHT22;9687;50.836;12.060;2023-09-12T14:42:02;30.80;58.30
19110;DHT22;9687;50.836;12.060;2023-09-12T14:44:39;30.80;58.30
19110;DHT22;9687;50.836;12.060;2023-09-12T14:47:08;30.80;58.30
19110;DHT22;9687;50.836;12.060;2023-09-12T14:49:35;30.80;58.30
19110;DHT22;9687;50.836;12.060;2023-09-12T14:52:09;30.80;58.30
19110;DHT22;9687;50.836;12.060;2023-09-12T14:54:38;30.80;58.30
19110;DHT22;9687;50.836;12.060;2023-09-12T14:57:26;30.80;58.20
19110;DHT22;9687;50.836;12.060;2023-09-12T15:00:05;30.80;58.20
19110;DHT22;9687;50.836;12.060;2023-09-12T15:02:39;30.70;58.10
19110;DHT22;9687;50.836;12.060;2023-09-12T15:05:08;30.70;58.00
19110;DHT22;9687;50.836;12.060;2023-09-12T15:07:36;30.70;57.90
19110;DHT22;9687;50.836;12.060;2023-09-12T15:10:06;30.70;57.90
19110;DHT22;9687;50.836;12.060;2023-09-12T15:12:34;30.70;57.90
19110;DHT22;9687;50.836;12.060;2023-09-12T15:15:06;30.60;57.80
19110;DHT22;9687;50.836;12.060;2023-09-12T15:17:52;30.60;57.70
19110;DHT22;9687;50.836;12.060;2023-09-12T15:20:25;30.60;57.80
19110;DHT22;9687;50.836;12.060;2023-09-12T15:22:52;30.50;57.80
19110;DHT22;9687;50.836;12.060;2023-09-12T15:25:24;30.50;57.80
19110;DHT22;9687;50.836;12.060;2023-09-12T15:27:51;30.50;57.80
19110;DHT22;9687;50.836;12.060;2023-09-12T15:30:19;30.40;57.90
19110;DHT22;9687;50.836;12.060;2023-09-12T15:32:46;30.40;57.80
19110;DHT22;9687;50.836;12.060;2023-09-12T15:35:14;30.30;57.80
19110;DHT22;9687;50.836;12.060;2023-09-12T15:38:00;30.30;57.90
19110;DHT22;9687;50.836;12.060;2023-09-12T15:40:31;30.30;58.00
19110;DHT22;9687;50.836;12.060;2023-09-12T15:42:58;30.20;58.70
19110;DHT22;9687;50.836;12.060;2023-09-12T15:45:31;30.20;58.10
19110;DHT22;9687;50.836;12.060;2023-09-12T15:48:16;30.10;58.10
19110;DHT22;9687;50.836;12.060;2023-09-12T15:50:47;30.10;58.20
19110;DHT22;9687;50.836;12.060;2023-09-12T15:53:18;30.10;58.20
19110;DHT22;9687;50.836;12.060;2023-09-12T15:55:58;30.10;58.40
19110;DHT22;9687;50.836;12.060;2023-09-12T15:58:28;30.00;58.40
19110;DHT22;9687;50.836;12.060;2023-09-12T16:01:08;30.00;58.40
19110;DHT22;9687;50.836;12.060;2023-09-12T16:03:37;30.00;58.50
19110;DHT22;9687;50.836;12.060;2023-09-12T16:06:06;29.90;58.60
19110;DHT22;9687;50.836;12.060;2023-09-12T16:08:39;29.90;58.70
19110;DHT22;9687;50.836;12.060;2023-09-12T16:11:17;29.80;58.70